Time;durP1;ratioP1;P1;durP2;ratioP2;P2;SDS_P1;SDS_P2;PMS_P1;PMS_P2;Temp;Humidity;BMP_temperature;BMP_pressure;BME280_temperature;BME280_humidity;BME280_pressure;Samples;Min_cycle;Max_cycle;Signal;HPM_P1;HPM_P2
2024/02/16 00:01:30;;;;;;;2.87;2.23;;;;;;;12.22;49.20;95406.28;5003638;28;20325;-80
2024/02/16 00:03:56;;;;;;;3.20;2.20;;;;;;;12.16;49.55;95407.72;5007573;28;20265;-81
2024/02/16 00:06:22;;;;;;;2.30;1.67;;;;;;;12.22;49.47;95401.06;5005068;28;20221;-82
2024/02/16 00:08:47;;;;;;;3.80;2.57;;;;;;;12.30;49.14;95393.25;5028925;28;20195;-80
2024/02/16 00:11:13;;;;;;;2.90;2.37;;;;;;;12.27;49.37;95396.16;5004869;28;20197;-80
2024/02/16 00:13:38;;;;;;;3.37;2.40;;;;;;;12.22;49.30;95393.25;5007202;28;20215;-80
2024/02/16 00:16:04;;;;;;;2.30;1.70;;;;;;;12.21;49.20;95383.00;5016783;28;20657;-81
2024/02/16 00:18:29;;;;;;;3.47;1.60;;;;;;;12.23;48.78;95383.66;5017359;28;20195;-80
2024/02/16 00:20:55;;;;;;;2.20;1.70;;;;;;;12.23;48.76;95381.84;5021024;28;20189;-80
2024/02/16 00:23:22;;;;;;;2.97;1.90;;;;;;;12.26;48.65;95383.31;5018946;28;20202;-80
2024/02/16 00:25:47;;;;;;;2.60;2.13;;;;;;;12.26;48.27;95385.91;5018541;28;20201;-80
2024/02/16 00:28:13;;;;;;;2.43;1.60;;;;;;;12.20;48.86;95384.78;5018323;28;20757;-80
2024/02/16 00:30:38;;;;;;;1.83;1.30;;;;;;;12.12;49.29;95388.19;5006999;28;20191;-81
2024/02/16 00:33:04;;;;;;;1.83;1.40;;;;;;;12.11;49.10;95391.78;5018189;28;20217;-81
2024/02/16 00:35:33;;;;;;;1.93;1.60;;;;;;;12.16;49.04;95388.69;5020914;28;20632;-81
2024/02/16 00:38:01;;;;;;;1.30;1.20;;;;;;;12.10;49.30;95389.31;5003377;28;20586;-80
2024/02/16 00:40:27;;;;;;;2.17;1.63;;;;;;;12.02;49.23;95387.53;5005754;28;20260;-81
2024/02/16 00:42:52;;;;;;;2.87;1.93;;;;;;;12.05;48.93;95391.59;5020179;28;20305;-82
2024/02/16 00:45:17;;;;;;;3.50;2.20;;;;;;;12.06;48.88;95390.63;4999483;28;20302;-82
2024/02/16 00:47:44;;;;;;;2.83;1.50;;;;;;;12.06;48.93;95391.44;5022181;28;20193;-82
2024/02/16 00:50:10;;;;;;;1.93;1.50;;;;;;;12.06;49.08;95383.63;5018881;28;20644;-81
2024/02/16 00:52:36;;;;;;;2.00;1.80;;;;;;;12.06;49.42;95395.81;5004217;28;20210;-81
2024/02/16 00:55:03;;;;;;;2.13;1.60;;;;;;;12.03;50.30;95391.75;4999942;28;20766;-80
2024/02/16 00:57:29;;;;;;;1.87;1.30;;;;;;;12.03;49.87;95396.97;5020515;28;20191;-81
2024/02/16 00:59:54;;;;;;;3.63;1.67;;;;;;;12.02;50.09;95404.94;5016405;28;20306;-82
2024/02/16 01:02:20;;;;;;;3.87;1.70;;;;;;;12.05;49.94;95402.00;5005030;28;20214;-81
2024/02/16 01:04:46;;;;;;;3.90;1.77;;;;;;;12.04;50.31;95401.19;5008760;28;20202;-81
2024/02/16 01:07:12;;;;;;;2.13;1.70;;;;;;;12.01;50.73;95405.88;5004848;28;20750;-80
2024/02/16 01:09:37;;;;;;;4.00;1.57;;;;;;;11.93;51.37;95411.91;5016611;28;20292;-81
2024/02/16 01:12:02;;;;;;;1.73;1.57;;;;;;;11.90;51.50;95407.00;5007545;28;20398;-81
2024/02/16 01:14:28;;;;;;;1.63;1.40;;;;;;;11.99;51.22;95405.25;5021686;28;20655;-81
2024/02/16 01:16:53;;;;;;;1.57;1.40;;;;;;;11.99;51.11;95408.66;5019008;28;20214;-81
2024/02/16 01:19:18;;;;;;;2.10;1.70;;;;;;;11.99;51.47;95410.44;4999911;28;20218;-81
2024/02/16 01:21:47;;;;;;;2.77;1.70;;;;;;;11.94;52.35;95408.34;5002266;28;20197;-80
2024/02/16 01:24:13;;;;;;;1.63;1.50;;;;;;;11.93;53.92;95396.31;5004666;28;20215;-81
2024/02/16 01:26:38;;;;;;;1.60;1.50;;;;;;;11.89;55.26;95397.56;5017309;28;20210;-81
2024/02/16 01:29:03;;;;;;;3.77;2.13;;;;;;;11.95;56.67;95398.75;5017224;28;20221;-81
2024/02/16 01:31:29;;;;;;;3.63;2.13;;;;;;;11.77;57.93;95391.84;5008323;28;20282;-81
2024/02/16 01:33:54;;;;;;;2.37;1.87;;;;;;;11.74;58.50;95388.72;5015943;28;20257;-81
2024/02/16 01:36:19;;;;;;;1.60;1.50;;;;;;;11.72;59.29;95388.88;5021875;28;20655;-81
2024/02/16 01:38:45;;;;;;;4.80;1.80;;;;;;;11.64;60.73;95381.06;5004823;28;20191;-81
2024/02/16 01:41:10;;;;;;;2.40;1.70;;;;;;;11.57;61.04;95378.28;5019700;28;20278;-81
2024/02/16 01:43:36;;;;;;;2.50;1.40;;;;;;;11.58;60.73;95382.50;5016115;28;20207;-82
2024/02/16 01:46:01;;;;;;;2.23;1.50;;;;;;;11.52;60.98;95382.31;5002128;28;20207;-81
2024/02/16 01:48:27;;;;;;;1.93;1.60;;;;;;;11.43;60.62;95378.88;5020988;28;20248;-82
2024/02/16 01:50:53;;;;;;;1.10;1.00;;;;;;;11.42;59.76;95374.66;5005610;28;20187;-81
2024/02/16 01:53:19;;;;;;;1.70;1.20;;;;;;;11.39;59.92;95377.53;5015482;28;20743;-81
2024/02/16 01:55:46;;;;;;;1.37;1.10;;;;;;;11.34;60.13;95372.00;4999490;28;20202;-81
2024/02/16 01:58:11;;;;;;;1.57;1.37;;;;;;;11.32;60.48;95376.56;5021266;28;20186;-81
2024/02/16 02:00:37;;;;;;;1.70;1.40;;;;;;;11.26;60.74;95374.56;5002750;28;20226;-81
2024/02/16 02:03:03;;;;;;;1.50;1.30;;;;;;;11.28;60.72;95381.25;5002649;28;20211;-81
2024/02/16 02:05:28;;;;;;;1.23;1.13;;;;;;;11.30;60.06;95378.47;5014090;28;20217;-81
2024/02/16 02:07:54;;;;;;;4.43;1.87;;;;;;;11.20;60.49;95386.41;5000563;28;20195;-81
2024/02/16 02:10:19;;;;;;;3.97;2.40;;;;;;;11.22;60.02;95381.03;5000442;28;20291;-81
2024/02/16 02:12:44;;;;;;;2.73;2.20;;;;;;;11.10;59.29;95382.28;5020732;28;20210;-81
2024/02/16 02:15:10;;;;;;;2.70;1.97;;;;;;;11.17;58.16;95391.91;5006315;28;20190;-82
2024/02/16 02:17:36;;;;;;;4.83;1.83;;;;;;;11.29;58.22;95376.84;5003372;28;20195;-81
2024/02/16 02:20:03;;;;;;;2.10;1.60;;;;;;;11.28;58.19;95373.44;5018167;28;20187;-81
2024/02/16 02:22:28;;;;;;;2.20;1.50;;;;;;;11.29;58.21;95369.88;5015357;28;20207;-81
2024/02/16 02:24:55;;;;;;;1.57;1.40;;;;;;;11.27;59.09;95358.81;4999610;28;20546;-80
2024/02/16 02:27:21;;;;;;;2.47;1.47;;;;;;;11.26;58.82;95361.59;5017739;28;20187;-82
2024/02/16 02:29:46;;;;;;;1.97;1.30;;;;;;;11.30;58.51;95355.91;5018772;28;20183;-81
2024/02/16 02:32:12;;;;;;;1.97;1.60;;;;;;;11.35;58.21;95358.03;5003473;28;20186;-81
2024/02/16 02:34:38;;;;;;;2.10;1.50;;;;;;;11.30;58.30;95352.47;5000351;28;20305;-81
2024/02/16 02:37:04;;;;;;;2.57;1.70;;;;;;;11.27;58.16;95347.59;5007050;28;20191;-81
2024/02/16 02:39:29;;;;;;;3.07;1.70;;;;;;;11.31;58.02;95352.34;5017405;28;20247;-81
2024/02/16 02:41:54;;;;;;;2.00;1.77;;;;;;;11.19;58.50;95350.19;5002546;28;20195;-82
2024/02/16 02:44:20;;;;;;;2.37;1.10;;;;;;;11.11;58.41;95347.53;5017032;28;20211;-80
2024/02/16 02:46:45;;;;;;;1.97;1.40;;;;;;;11.33;57.10;95341.78;5018033;28;20684;-81
2024/02/16 02:49:10;;;;;;;1.37;1.23;;;;;;;11.31;57.20;95334.16;5018338;28;20187;-79
2024/02/16 02:51:36;;;;;;;1.97;1.40;;;;;;;11.33;57.27;95339.19;5016831;28;20600;-80
2024/02/16 02:54:01;;;;;;;1.17;0.90;;;;;;;11.29;56.71;95338.69;5017222;28;20202;-82
2024/02/16 02:56:27;;;;;;;1.47;1.00;;;;;;;11.33;55.85;95345.22;5000117;28;20183;-81
2024/02/16 02:58:52;;;;;;;1.30;1.10;;;;;;;11.33;55.50;95342.59;4998847;28;20193;-81
2024/02/16 03:01:19;;;;;;;0.70;0.60;;;;;;;11.45;54.35;95340.53;5004985;28;20676;-81
2024/02/16 03:03:45;;;;;;;1.10;0.90;;;;;;;11.45;55.21;95340.53;5006049;28;20222;-81
2024/02/16 03:06:10;;;;;;;1.10;1.00;;;;;;;11.33;54.37;95344.41;5023835;28;20203;-81
2024/02/16 03:08:35;;;;;;;1.20;1.10;;;;;;;11.55;53.91;95346.41;5004152;28;20187;-81
2024/02/16 03:11:01;;;;;;;2.43;1.10;;;;;;;11.59;54.16;95337.31;5008016;28;20198;-80
2024/02/16 03:13:27;;;;;;;1.90;0.90;;;;;;;11.62;54.12;95339.59;5022456;28;20253;-82
2024/02/16 03:15:52;;;;;;;1.30;0.93;;;;;;;11.60;54.60;95351.97;5013040;28;20179;-79
2024/02/16 03:18:18;;;;;;;2.17;0.97;;;;;;;11.51;55.77;95350.31;5004174;28;20662;-81
2024/02/16 03:20:45;;;;;;;1.93;1.20;;;;;;;11.56;55.03;95348.03;4999793;28;20203;-80
2024/02/16 03:23:11;;;;;;;2.63;1.13;;;;;;;11.52;55.50;95351.13;5021058;28;20210;-82
2024/02/16 03:25:36;;;;;;;2.40;1.20;;;;;;;11.47;56.00;95346.38;5021952;28;20628;-81
2024/02/16 03:28:02;;;;;;;1.97;1.10;;;;;;;11.41;56.84;95352.22;5003565;28;20273;-82
2024/02/16 03:30:27;;;;;;;1.47;1.00;;;;;;;11.37;57.58;95347.47;5021640;28;20202;-82
2024/02/16 03:32:53;;;;;;;1.57;1.07;;;;;;;11.37;56.93;95350.09;5013397;28;20206;-81
2024/02/16 03:35:18;;;;;;;1.87;0.80;;;;;;;11.43;56.57;95347.69;5003750;28;20237;-80
2024/02/16 03:37:44;;;;;;;1.60;0.90;;;;;;;11.43;56.64;95342.47;5008053;28;20199;-81
2024/02/16 03:40:12;;;;;;;1.23;1.00;;;;;;;11.45;56.43;95345.72;5011678;28;20294;-82
2024/02/16 03:42:38;;;;;;;1.50;1.20;;;;;;;11.47;56.44;95343.78;5007027;28;20211;-81
2024/02/16 03:45:04;;;;;;;1.47;1.23;;;;;;;11.47;56.85;95342.97;5021611;28;20203;-82
2024/02/16 03:47:29;;;;;;;1.33;1.00;;;;;;;11.49;56.95;95341.84;5022399;28;20194;-81
2024/02/16 03:49:55;;;;;;;2.80;1.30;;;;;;;11.50;57.05;95340.06;5004620;28;20203;-82
2024/02/16 03:52:20;;;;;;;3.30;1.07;;;;;;;11.52;56.99;95341.53;5021675;28;20226;-82
2024/02/16 03:54:48;;;;;;;2.30;1.00;;;;;;;11.48;57.24;95345.41;5002590;28;20203;-82
2024/02/16 03:57:13;;;;;;;1.70;1.20;;;;;;;11.49;57.94;95348.84;5021859;28;20553;-82
2024/02/16 03:59:39;;;;;;;2.87;1.07;;;;;;;11.50;57.48;95343.47;5005022;28;20187;-82
2024/02/16 04:02:04;;;;;;;2.90;1.30;;;;;;;11.56;56.46;95353.22;5019646;28;20676;-81
2024/02/16 04:04:30;;;;;;;1.30;1.00;;;;;;;11.59;56.32;95347.72;5017794;28;20195;-82
2024/02/16 04:06:55;;;;;;;1.43;1.30;;;;;;;11.58;56.55;95343.50;5020118;28;20222;-80
2024/02/16 04:09:20;;;;;;;2.07;0.93;;;;;;;11.49;57.17;95347.06;5004466;28;20328;-81
2024/02/16 04:11:46;;;;;;;1.37;0.90;;;;;;;11.41;57.73;95344.44;5026854;28;20278;-82
2024/02/16 04:14:12;;;;;;;4.33;1.20;;;;;;;11.31;57.78;95347.16;5020132;28;20262;-82
2024/02/16 04:16:37;;;;;;;1.47;0.97;;;;;;;11.28;57.84;95346.63;5009671;28;20210;-82
2024/02/16 04:19:02;;;;;;;1.63;1.20;;;;;;;11.21;58.32;95359.44;5001971;28;20261;-81
2024/02/16 04:21:28;;;;;;;1.57;1.03;;;;;;;11.20;57.92;95349.19;5017915;28;20190;-82
2024/02/16 04:23:53;;;;;;;1.90;1.23;;;;;;;11.14;58.30;95355.84;5013362;28;20619;-81
2024/02/16 04:26:18;;;;;;;1.13;0.97;;;;;;;10.99;59.23;95360.00;5020253;28;20221;-82
2024/02/16 04:28:44;;;;;;;1.93;1.10;;;;;;;10.93;58.09;95358.81;5019739;28;20206;-81
2024/02/16 04:31:09;;;;;;;2.23;1.10;;;;;;;10.94;58.22;95360.44;5024290;28;20187;-82
2024/02/16 04:33:34;;;;;;;1.70;1.13;;;;;;;10.95;59.04;95351.69;5006213;28;20219;-82
2024/02/16 04:36:00;;;;;;;0.93;0.83;;;;;;;10.93;58.70;95353.63;5020678;28;20930;-82
2024/02/16 04:38:25;;;;;;;1.47;0.90;;;;;;;10.86;59.46;95354.38;5021094;28;20191;-81
2024/02/16 04:40:50;;;;;;;1.87;1.10;;;;;;;10.87;59.29;95354.25;5013806;28;20203;-82
2024/02/16 04:43:16;;;;;;;1.37;1.00;;;;;;;10.86;59.18;95365.59;5019591;28;20203;-81
2024/02/16 04:45:41;;;;;;;1.40;0.83;;;;;;;10.82;59.13;95361.69;5018403;28;20586;-80
2024/02/16 04:48:07;;;;;;;1.37;0.90;;;;;;;10.72;59.85;95363.56;5017397;28;20198;-82
2024/02/16 04:50:33;;;;;;;1.30;0.90;;;;;;;10.70;60.40;95365.50;5022844;28;20201;-82
2024/02/16 04:52:59;;;;;;;1.13;0.93;;;;;;;10.70;59.96;95366.31;5018342;28;20211;-82
2024/02/16 04:55:24;;;;;;;2.63;1.23;;;;;;;10.64;60.34;95371.31;5001059;28;20193;-81
2024/02/16 04:57:49;;;;;;;1.70;1.20;;;;;;;10.55;60.89;95367.03;5005461;28;20595;-80
2024/02/16 05:00:15;;;;;;;1.90;1.50;;;;;;;10.52;61.15;95367.34;5019556;28;20187;-81
2024/02/16 05:02:40;;;;;;;1.63;1.30;;;;;;;10.42;61.30;95368.25;5004580;28;20307;-81
2024/02/16 05:05:06;;;;;;;1.63;1.20;;;;;;;10.36;61.92;95366.25;5020006;28;20692;-81
2024/02/16 05:07:31;;;;;;;2.63;1.27;;;;;;;10.28;62.57;95367.97;5023720;28;20668;-81
2024/02/16 05:09:58;;;;;;;2.30;1.20;;;;;;;10.27;62.41;95372.34;5000292;28;20229;-82
2024/02/16 05:12:23;;;;;;;1.83;1.20;;;;;;;10.09;63.04;95379.28;5016410;28;20218;-82
2024/02/16 05:14:50;;;;;;;2.10;1.53;;;;;;;10.09;62.93;95384.47;5002463;28;20282;-80
2024/02/16 05:17:15;;;;;;;2.80;1.40;;;;;;;10.17;62.40;95384.56;5008632;28;20274;-81
2024/02/16 05:19:40;;;;;;;1.73;1.40;;;;;;;10.19;62.24;95380.84;5020864;28;20230;-81
2024/02/16 05:22:06;;;;;;;3.67;2.37;;;;;;;10.11;63.20;95385.94;5021860;28;20254;-81
2024/02/16 05:24:31;;;;;;;4.70;2.57;;;;;;;10.01;63.36;95390.41;5007066;28;20183;-81
2024/02/16 05:26:56;;;;;;;4.87;2.60;;;;;;;10.07;62.96;95394.16;5017675;28;20325;-82
2024/02/16 05:29:22;;;;;;;3.87;2.33;;;;;;;10.06;62.97;95385.56;5019058;28;20242;-80
2024/02/16 05:31:47;;;;;;;4.53;2.80;;;;;;;9.98;63.47;95384.66;5023384;28;20221;-81
2024/02/16 05:34:13;;;;;;;5.43;3.13;;;;;;;9.89;64.00;95392.41;5019258;28;20209;-81
2024/02/16 05:36:39;;;;;;;3.23;2.20;;;;;;;9.81;64.04;95392.31;5006085;28;20187;-81
2024/02/16 05:39:19;;;;;;;2.00;1.80;;;;;;;9.79;64.06;95388.22;4999879;28;20207;-81
2024/02/16 05:41:46;;;;;;;3.63;2.40;;;;;;;9.60;65.62;95392.56;5007734;28;20682;-80
2024/02/16 05:44:11;;;;;;;2.47;1.80;;;;;;;9.67;65.07;95398.00;5015591;28;20210;-80
2024/02/16 05:46:37;;;;;;;3.27;1.60;;;;;;;9.70;65.05;95392.50;5001417;28;20321;-81
2024/02/16 05:49:04;;;;;;;3.40;1.77;;;;;;;9.62;65.31;95389.81;5007436;28;20286;-80
2024/02/16 05:51:35;;;;;;;3.30;1.37;;;;;;;9.58;65.27;95394.50;5006057;28;20178;-81
2024/02/16 05:54:01;;;;;;;2.47;1.70;;;;;;;9.52;65.52;95394.25;5018850;28;20389;-81
2024/02/16 05:56:28;;;;;;;2.50;1.33;;;;;;;9.51;65.74;95396.03;5014126;28;20262;-81
2024/02/16 05:58:53;;;;;;;2.70;1.40;;;;;;;9.50;65.72;95391.00;5002368;28;20271;-81
2024/02/16 06:01:18;;;;;;;2.30;1.40;;;;;;;9.40;66.46;95392.81;5018776;28;20191;-81
2024/02/16 06:03:44;;;;;;;1.37;1.27;;;;;;;9.32;67.21;95399.53;5000284;28;20305;-82
2024/02/16 06:06:09;;;;;;;2.33;1.50;;;;;;;9.30;67.51;95393.69;5002452;28;20695;-81
2024/02/16 06:08:34;;;;;;;3.27;1.60;;;;;;;9.28;67.64;95392.19;5005373;28;20183;-81
2024/02/16 06:11:01;;;;;;;2.30;1.60;;;;;;;9.24;67.14;95402.03;5017385;28;20671;-81
2024/02/16 06:13:27;;;;;;;2.33;1.73;;;;;;;9.24;67.56;95411.56;5005309;28;20206;-81
2024/02/16 06:15:53;;;;;;;1.83;1.30;;;;;;;9.24;66.98;95412.38;4999231;28;20179;-81
2024/02/16 06:18:19;;;;;;;1.87;1.53;;;;;;;9.26;67.76;95409.63;5018358;28;20668;-81
2024/02/16 06:20:45;;;;;;;4.23;1.90;;;;;;;9.46;67.15;95410.41;5000522;28;20183;-81
2024/02/16 06:23:10;;;;;;;2.07;1.77;;;;;;;9.48;66.64;95408.47;5009759;28;20579;-82
2024/02/16 06:25:36;;;;;;;1.30;1.20;;;;;;;9.49;66.29;95405.72;5003964;28;20604;-81
2024/02/16 06:28:02;;;;;;;1.93;1.33;;;;;;;9.46;66.48;95410.41;5018205;28;20215;-81
2024/02/16 06:30:28;;;;;;;1.87;1.70;;;;;;;9.35;67.00;95409.59;5017212;28;20191;-81
2024/02/16 06:32:54;;;;;;;1.93;1.50;;;;;;;9.47;66.83;95412.84;4999979;28;20195;-81
2024/02/16 06:35:20;;;;;;;1.30;1.10;;;;;;;9.58;65.71;95419.59;5017168;28;20191;-81
2024/02/16 06:37:45;;;;;;;2.17;1.83;;;;;;;9.60;65.69;95418.50;5016773;28;20245;-79
2024/02/16 06:40:11;;;;;;;1.67;1.40;;;;;;;9.63;65.53;95422.59;5019716;28;20191;-81
2024/02/16 06:42:37;;;;;;;2.67;1.73;;;;;;;9.68;65.43;95427.31;5008719;28;20215;-84
2024/02/16 06:45:05;;;;;;;3.47;2.20;;;;;;;9.66;65.41;95432.66;5013503;28;20207;-84
2024/02/16 06:47:33;;;;;;;9.03;3.63;;;;;;;9.75;64.95;95433.56;5018846;28;20190;-83
2024/02/16 06:49:58;;;;;;;4.80;2.73;;;;;;;9.73;65.18;95438.91;5011598;28;20183;-82
2024/02/16 06:52:23;;;;;;;7.83;4.17;;;;;;;9.72;65.76;95446.81;5005918;28;20628;-82
2024/02/16 06:54:49;;;;;;;13.03;8.50;;;;;;;9.67;65.88;95447.25;5025632;28;20183;-83
2024/02/16 06:57:15;;;;;;;11.23;7.43;;;;;;;9.78;65.46;95447.06;5001172;28;20651;-82
2024/02/16 06:59:41;;;;;;;8.90;6.10;;;;;;;9.80;65.41;95444.31;5006013;28;20194;-82
2024/02/16 07:02:07;;;;;;;7.97;6.03;;;;;;;9.82;65.80;95448.41;5006183;28;20190;-81
2024/02/16 07:04:32;;;;;;;4.63;4.13;;;;;;;9.88;65.55;95450.41;5014554;28;20559;-83
2024/02/16 07:06:57;;;;;;;2.67;2.47;;;;;;;9.91;65.42;95460.50;5018348;28;20210;-82
2024/02/16 07:09:23;;;;;;;3.40;2.73;;;;;;;9.92;65.91;95459.53;5018690;28;20273;-82
2024/02/16 07:11:50;;;;;;;2.40;2.07;;;;;;;10.00;65.13;95463.19;5014786;28;20199;-82
2024/02/16 07:14:15;;;;;;;3.87;1.93;;;;;;;10.21;64.74;95463.72;5006924;28;20206;-83
2024/02/16 07:16:40;;;;;;;4.23;2.10;;;;;;;10.24;64.16;95466.03;5020597;28;20224;-83
2024/02/16 07:19:06;;;;;;;3.70;2.20;;;;;;;10.32;64.07;95467.91;5017553;28;20187;-83
2024/02/16 07:21:31;;;;;;;5.00;1.73;;;;;;;10.42;63.95;95472.09;4997048;28;20202;-83
2024/02/16 07:23:57;;;;;;;2.80;1.73;;;;;;;10.42;63.89;95477.28;5016744;28;20855;-83
2024/02/16 07:26:22;;;;;;;2.40;1.77;;;;;;;10.50;63.99;95477.31;5016296;28;20199;-83
2024/02/16 07:28:48;;;;;;;2.27;1.80;;;;;;;10.55;63.73;95486.47;5011538;28;20202;-82
2024/02/16 07:31:14;;;;;;;2.03;1.57;;;;;;;10.75;63.22;95478.34;5020493;28;20214;-83
2024/02/16 07:33:40;;;;;;;2.03;1.70;;;;;;;10.88;62.72;95485.78;5011055;28;20229;-82
2024/02/16 07:36:05;;;;;;;2.30;1.90;;;;;;;11.03;62.22;95481.66;5014329;28;20175;-83
2024/02/16 07:38:31;;;;;;;2.57;1.93;;;;;;;11.13;62.09;95480.72;5006395;28;20195;-82
2024/02/16 07:40:56;;;;;;;2.40;2.03;;;;;;;11.14;62.35;95491.00;5017228;28;20667;-83
2024/02/16 07:43:23;;;;;;;2.13;1.57;;;;;;;11.32;61.83;95488.34;5018855;28;20237;-83
2024/02/16 07:45:49;;;;;;;1.87;1.60;;;;;;;11.50;61.51;95485.69;5020592;28;20219;-82
2024/02/16 07:48:15;;;;;;;1.93;1.47;;;;;;;11.61;60.58;95488.81;5012880;28;20202;-82
2024/02/16 07:50:41;;;;;;;2.03;1.50;;;;;;;11.75;59.62;95494.41;5008372;28;20218;-82
2024/02/16 07:53:06;;;;;;;2.57;1.40;;;;;;;11.95;59.01;95497.63;5010890;28;20203;-82
2024/02/16 07:55:31;;;;;;;1.37;1.23;;;;;;;11.98;58.34;95498.13;5017992;28;20266;-83
2024/02/16 07:57:57;;;;;;;1.40;0.93;;;;;;;12.16;58.25;95501.44;5011858;28;20195;-83
2024/02/16 08:00:22;;;;;;;18.37;10.87;;;;;;;12.28;57.82;95501.13;5010843;28;20190;-82
2024/02/16 08:02:48;;;;;;;7.97;4.00;;;;;;;12.38;57.64;95502.63;5021024;28;20206;-82
2024/02/16 08:05:13;;;;;;;2.87;1.97;;;;;;;12.52;57.58;95501.19;5022369;28;20198;-82
2024/02/16 08:07:42;;;;;;;2.60;1.93;;;;;;;12.71;57.03;95502.66;5023636;28;20242;-82
2024/02/16 08:10:08;;;;;;;2.37;1.60;;;;;;;12.93;56.47;95511.66;5014843;28;20619;-81
2024/02/16 08:12:35;;;;;;;1.73;1.43;;;;;;;13.09;55.94;95509.03;5008981;28;20198;-80
2024/02/16 08:15:06;;;;;;;2.20;1.57;;;;;;;13.28;55.50;95511.34;5019342;28;20218;-79
2024/02/16 08:17:31;;;;;;;1.63;1.17;;;;;;;13.42;55.28;95509.03;5007254;28;20270;-81
2024/02/16 08:19:57;;;;;;;4.73;1.60;;;;;;;13.61;54.53;95508.69;5029510;28;20221;-80
2024/02/16 08:22:22;;;;;;;1.40;1.27;;;;;;;13.77;54.30;95515.63;5027169;28;20215;-81
2024/02/16 08:24:49;;;;;;;2.00;1.43;;;;;;;13.91;53.79;95520.16;5014733;28;20183;-81
2024/02/16 08:27:15;;;;;;;1.30;1.10;;;;;;;14.11;53.27;95531.81;5019859;28;20199;-80
2024/02/16 08:29:41;;;;;;;2.50;1.87;;;;;;;14.27;52.80;95520.50;5022429;28;20190;-80
2024/02/16 08:32:06;;;;;;;1.97;1.37;;;;;;;14.45;51.09;95523.69;5009851;28;20264;-81
2024/02/16 08:34:32;;;;;;;2.80;1.33;;;;;;;14.58;49.92;95523.16;5008555;28;20256;-80
2024/02/16 08:36:57;;;;;;;1.50;1.40;;;;;;;14.77;47.42;95528.91;5020645;28;20203;-80
2024/02/16 08:39:24;;;;;;;1.60;1.30;;;;;;;14.98;46.31;95523.84;5016568;28;20203;-80
2024/02/16 08:41:50;;;;;;;1.50;1.40;;;;;;;15.16;46.00;95532.19;5010926;28;20199;-81
2024/02/16 08:44:16;;;;;;;2.03;1.53;;;;;;;15.34;45.80;95523.22;5021358;28;20664;-82
2024/02/16 08:46:41;;;;;;;1.80;1.20;;;;;;;15.49;45.33;95526.69;5009809;28;20214;-82
2024/02/16 08:49:07;;;;;;;2.60;1.83;;;;;;;15.67;44.84;95534.22;5010141;28;20649;-82
2024/02/16 08:51:33;;;;;;;2.63;1.23;;;;;;;15.69;43.05;95529.63;5012611;28;20187;-82
2024/02/16 08:53:59;;;;;;;2.27;1.30;;;;;;;15.76;43.42;95535.78;5011874;28;20203;-82
2024/02/16 08:56:24;;;;;;;1.37;1.10;;;;;;;16.05;42.65;95540.19;5013025;28;20180;-82
2024/02/16 08:58:49;;;;;;;2.43;1.30;;;;;;;16.24;42.29;95533.56;5026652;28;20583;-85
2024/02/16 09:01:16;;;;;;;2.33;1.27;;;;;;;16.34;41.48;95534.09;5021375;28;20254;-80
2024/02/16 09:03:42;;;;;;;2.37;1.10;;;;;;;16.36;40.93;95534.75;5012656;28;20210;-83
2024/02/16 09:06:07;;;;;;;1.97;1.20;;;;;;;16.05;41.34;95535.75;5011017;28;20210;-81
2024/02/16 09:08:35;;;;;;;1.87;1.10;;;;;;;16.42;41.27;95545.28;5009720;28;20182;-81
2024/02/16 09:11:05;;;;;;;3.47;1.30;;;;;;;16.32;41.13;95543.97;5026504;28;20189;-81
2024/02/16 09:13:32;;;;;;;1.65;1.13;;;;;;;16.43;41.50;95546.94;5010016;28;20209;-82
2024/02/16 09:15:57;;;;;;;2.20;1.30;;;;;;;16.67;41.10;95548.41;5016355;28;20241;-80
2024/02/16 09:18:22;;;;;;;1.92;1.40;;;;;;;16.73;41.11;95548.69;5005490;28;20233;-81
2024/02/16 09:20:48;;;;;;;1.77;1.30;;;;;;;16.82;41.86;95551.03;5017813;28;20236;-79
2024/02/16 09:23:14;;;;;;;1.60;1.20;;;;;;;16.86;43.02;95559.31;5011467;28;20227;-80
2024/02/16 09:25:40;;;;;;;1.67;1.58;;;;;;;16.80;44.14;95565.31;5022052;28;20214;-79
2024/02/16 09:28:06;;;;;;;1.80;1.40;;;;;;;16.72;45.15;95568.06;5024706;28;20230;-80
2024/02/16 09:30:32;;;;;;;1.90;1.30;;;;;;;16.72;45.26;95571.50;5022363;28;20178;-80
2024/02/16 09:32:58;;;;;;;2.17;1.48;;;;;;;16.54;45.33;95573.66;5006284;28;20205;-79
2024/02/16 09:35:23;;;;;;;1.13;1.02;;;;;;;16.64;45.36;95575.00;5020768;28;20507;-80
2024/02/16 09:37:48;;;;;;;5.90;1.40;;;;;;;16.47;44.83;95576.22;5010329;28;20764;-80
2024/02/16 09:40:15;;;;;;;4.53;1.40;;;;;;;16.60;44.70;95586.84;5022403;28;20226;-80
2024/02/16 09:42:40;;;;;;;2.37;1.20;;;;;;;16.61;45.71;95588.50;5022567;28;20213;-79
2024/02/16 09:45:07;;;;;;;2.92;1.30;;;;;;;16.62;45.40;95591.91;5007693;28;20641;-80
2024/02/16 09:47:34;;;;;;;2.70;1.48;;;;;;;16.48;45.26;95595.38;5009496;28;20258;-79
2024/02/16 09:50:00;;;;;;;2.35;1.70;;;;;;;16.49;46.37;95597.00;5021533;28;20186;-80
2024/02/16 09:52:26;;;;;;;3.08;1.50;;;;;;;16.39;45.84;95605.94;5005119;28;20252;-81
2024/02/16 09:54:51;;;;;;;4.07;1.73;;;;;;;16.45;46.43;95593.94;5021398;28;20241;-79
2024/02/16 09:57:17;;;;;;;2.15;1.70;;;;;;;16.54;46.09;95599.88;5021066;28;20282;-79
2024/02/16 09:59:43;;;;;;;2.58;1.35;;;;;;;16.56;47.25;95609.19;5020197;28;20179;-79
2024/02/16 10:02:09;;;;;;;3.35;1.50;;;;;;;16.62;46.77;95597.97;5008810;28;20198;-80
2024/02/16 10:04:34;;;;;;;3.65;1.20;;;;;;;16.75;46.47;95607.00;5006128;28;20240;-80
2024/02/16 10:06:59;;;;;;;2.22;1.52;;;;;;;16.72;47.63;95610.00;5007611;28;20210;-79
2024/02/16 10:09:26;;;;;;;2.87;1.53;;;;;;;16.74;47.45;95606.19;5020118;28;20214;-80
2024/02/16 10:11:52;;;;;;;2.20;1.43;;;;;;;16.62;48.93;95607.66;5006020;28;20637;-80
2024/02/16 10:14:19;;;;;;;3.67;1.60;;;;;;;16.75;47.82;95607.00;5017071;28;20210;-79
2024/02/16 10:16:44;;;;;;;3.78;2.00;;;;;;;16.76;47.71;95614.69;5010342;28;20216;-79
2024/02/16 10:19:10;;;;;;;2.92;1.70;;;;;;;16.76;48.65;95624.38;5007495;28;20305;-80
2024/02/16 10:21:35;;;;;;;3.83;1.60;;;;;;;16.91;48.61;95617.28;5017724;28;20183;-81
2024/02/16 10:24:08;;;;;;;2.83;1.50;;;;;;;17.00;48.63;95621.44;5007417;28;20210;-79
2024/02/16 10:26:37;;;;;;;2.75;1.80;;;;;;;16.92;49.59;95619.72;5002228;28;20234;-80
2024/02/16 10:29:03;;;;;;;4.20;1.70;;;;;;;17.08;49.14;95623.94;5007722;28;20563;-80
2024/02/16 10:31:30;;;;;;;2.92;1.42;;;;;;;17.12;48.95;95630.41;5018051;28;20188;-78
2024/02/16 10:33:57;;;;;;;5.45;1.80;;;;;;;17.04;50.24;95627.91;5025821;28;20229;-80
2024/02/16 10:36:28;;;;;;;5.30;2.20;;;;;;;17.28;50.01;95624.94;5021142;28;20196;-78
2024/02/16 10:38:55;;;;;;;4.50;2.58;;;;;;;17.15;50.01;95631.88;5020798;28;20278;-79
2024/02/16 10:41:34;;;;;;;2.40;1.80;;;;;;;17.41;49.93;95634.78;5011080;28;20273;-80
2024/02/16 10:44:01;;;;;;;5.13;1.90;;;;;;;17.21;50.23;95629.31;5019113;28;20265;-80
2024/02/16 10:46:26;;;;;;;5.32;1.92;;;;;;;17.16;50.09;95631.69;5008767;28;20293;-80
2024/02/16 10:48:51;;;;;;;3.50;1.70;;;;;;;17.35;50.42;95625.00;5016995;28;20246;-79
2024/02/16 10:51:20;;;;;;;7.60;3.53;;;;;;;17.54;49.64;95629.63;5018462;28;20648;-80
2024/02/16 10:53:47;;;;;;;7.30;3.38;;;;;;;17.45;50.27;95635.19;5005568;28;20238;-79
2024/02/16 10:56:13;;;;;;;5.07;1.92;;;;;;;17.58;49.94;95632.72;5017593;28;20194;-79
2024/02/16 10:58:40;;;;;;;4.90;2.17;;;;;;;17.50;49.15;95632.84;5002579;28;20294;-79
2024/02/16 11:01:12;;;;;;;7.25;3.30;;;;;;;17.47;49.82;95634.00;5008582;28;20213;-78
2024/02/16 11:03:39;;;;;;;7.63;4.68;;;;;;;17.64;49.14;95628.50;5019674;28;20194;-79
2024/02/16 11:06:15;;;;;;;4.72;3.13;;;;;;;17.85;48.81;95630.34;5016966;28;20237;-79
2024/02/16 11:08:41;;;;;;;4.93;3.13;;;;;;;17.82;49.18;95631.50;5035159;28;20214;-79
2024/02/16 11:11:06;;;;;;;5.63;2.20;;;;;;;17.78;49.11;95631.09;5016820;28;20600;-81
2024/02/16 11:13:34;;;;;;;5.57;2.00;;;;;;;17.96;49.45;95629.81;5006876;28;20318;-78
2024/02/16 11:16:01;;;;;;;3.97;1.90;;;;;;;18.08;49.48;95631.69;5016871;28;20757;-80
2024/02/16 11:18:27;;;;;;;3.42;1.40;;;;;;;17.81;48.78;95630.69;5011481;28;20191;-79
2024/02/16 11:20:54;;;;;;;5.18;1.83;;;;;;;18.34;49.00;95631.06;5022910;28;20229;-80
2024/02/16 11:23:26;;;;;;;6.10;2.17;;;;;;;18.45;48.20;95632.31;5019199;28;20627;-79
2024/02/16 11:25:52;;;;;;;5.35;1.60;;;;;;;18.55;47.45;95637.22;5006633;28;20225;-79
2024/02/16 11:28:18;;;;;;;6.20;1.67;;;;;;;18.41;48.44;95631.09;5009544;28;20282;-80